Time;durP1;ratioP1;P1;durP2;ratioP2;P2;SDS_P1;SDS_P2;PMS_P1;PMS_P2;Temp;Humidity;BMP_temperature;BMP_pressure;BME280_temperature;BME280_humidity;BME280_pressure;Samples;Min_cycle;Max_cycle;Signal;HPM_P1;HPM_P2
2021/11/29 00:01:00;;;;;;;17.83;2.65;;;25.30;18.50;;;;;;5052423;28;20142;-71
2021/11/29 00:03:29;;;;;;;19.42;3.30;;;25.20;18.60;;;;;;5055548;28;20116;-67
2021/11/29 00:05:55;;;;;;;16.23;2.95;;;25.10;18.60;;;;;;5073088;28;20554;-70
2021/11/29 00:08:22;;;;;;;17.10;3.05;;;25.00;19.10;;;;;;5055612;28;20079;-67
2021/11/29 00:10:48;;;;;;;15.32;3.20;;;24.90;19.40;;;;;;5055500;28;20069;-68
2021/11/29 00:13:15;;;;;;;17.05;3.10;;;24.80;19.20;;;;;;5056590;28;20129;-67
2021/11/29 00:15:41;;;;;;;18.35;3.65;;;24.70;18.90;;;;;;5056298;28;20080;-66
2021/11/29 00:18:08;;;;;;;11.45;3.30;;;24.60;19.40;;;;;;5056175;28;20077;-67
2021/11/29 00:20:34;;;;;;;21.98;4.05;;;24.40;20.10;;;;;;5039703;28;20599;-69
2021/11/29 00:23:01;;;;;;;17.92;4.25;;;24.30;19.90;;;;;;5057464;28;20089;-71
2021/11/29 00:25:27;;;;;;;26.00;4.47;;;24.10;20.30;;;;;;5088389;28;20163;-71
2021/11/29 00:27:54;;;;;;;22.33;3.88;;;24.00;21.10;;;;;;5072013;28;20081;-68
2021/11/29 00:30:21;;;;;;;25.30;4.00;;;23.90;20.80;;;;;;5071745;28;20445;-68
2021/11/29 00:32:48;;;;;;;25.38;5.10;;;23.60;21.00;;;;;;5058385;28;20476;-68
2021/11/29 00:35:14;;;;;;;23.92;4.95;;;23.50;21.70;;;;;;5054337;28;20073;-68
2021/11/29 00:37:41;;;;;;;25.08;4.93;;;23.40;21.60;;;;;;5071825;28;20539;-69
2021/11/29 00:40:10;;;;;;;22.15;5.82;;;23.20;21.70;;;;;;5037049;28;20583;-67
2021/11/29 00:42:37;;;;;;;28.42;6.93;;;23.00;22.40;;;;;;5054068;28;20089;-67
2021/11/29 00:45:06;;;;;;;21.95;6.93;;;22.80;23.00;;;;;;5053036;28;20072;-68
2021/11/29 00:47:33;;;;;;;29.65;7.47;;;22.70;23.80;;;;;;5054347;28;20084;-66
2021/11/29 00:50:00;;;;;;;29.00;7.63;;;22.50;23.70;;;;;;5054053;28;20122;-67
2021/11/29 00:52:26;;;;;;;29.48;7.50;;;22.40;24.10;;;;;;5059221;28;20766;-68
2021/11/29 00:54:53;;;;;;;30.10;7.38;;;22.20;24.40;;;;;;5056929;28;20157;-66
2021/11/29 00:57:19;;;;;;;31.17;7.65;;;22.00;25.00;;;;;;5055324;28;20074;-65
2021/11/29 00:59:49;;;;;;;31.20;6.93;;;21.90;25.40;;;;;;5071225;28;20123;-65
2021/11/29 01:02:16;;;;;;;27.80;6.18;;;21.90;25.80;;;;;;5056452;28;20093;-66
2021/11/29 01:04:43;;;;;;;21.00;5.13;;;21.80;26.00;;;;;;5054112;28;20081;-66
2021/11/29 01:07:10;;;;;;;24.55;6.20;;;22.10;26.30;;;;;;5037560;28;20069;-66
2021/11/29 01:09:38;;;;;;;28.13;6.45;;;21.40;26.20;;;;;;5070115;28;20148;-67
2021/11/29 01:12:05;;;;;;;30.02;5.80;;;21.20;26.20;;;;;;5054893;28;20077;-67
2021/11/29 01:14:32;;;;;;;31.90;6.53;;;21.10;26.70;;;;;;5071442;28;20105;-66
2021/11/29 01:16:58;;;;;;;34.67;6.00;;;21.00;26.50;;;;;;5055101;28;20083;-65
2021/11/29 01:19:25;;;;;;;37.40;7.03;;;20.90;26.90;;;;;;5055030;28;20443;-64
2021/11/29 01:21:51;;;;;;;41.72;7.35;;;20.80;27.40;;;;;;5060797;28;20088;-63
2021/11/29 01:24:18;;;;;;;50.83;8.68;;;20.70;27.80;;;;;;5066276;28;20117;-67
2021/11/29 01:26:44;;;;;;;45.25;8.45;;;20.60;28.30;;;;;;5047435;28;20080;-65
2021/11/29 01:29:11;;;;;;;60.33;9.40;;;20.50;28.50;;;;;;5054071;28;20528;-64
2021/11/29 01:31:37;;;;;;;48.72;9.05;;;20.40;28.80;;;;;;5052905;28;20081;-64
2021/11/29 01:34:03;;;;;;;;;;;20.30;29.00;;;;;;5038627;28;20070;-65
2021/11/29 01:36:30;;;;;;;46.65;9.38;;;20.10;29.20;;;;;;5053117;28;19980;-68
2021/11/29 01:38:55;;;;;;;;;;;20.00;29.40;;;;;;5037217;28;20067;-66
2021/11/29 01:41:22;;;;;;;50.75;8.65;;;19.90;29.80;;;;;;5057429;28;19967;-65
2021/11/29 01:43:48;;;;;;;;;;;19.90;29.80;;;;;;5059077;28;20100;-65
2021/11/29 01:46:19;;;;;;;26.90;8.63;;;19.90;30.00;;;;;;5058764;28;19964;-63
2021/11/29 01:48:45;;;;;;;39.13;9.90;;;19.80;31.00;;;;;;5059491;28;20322;-63
2021/11/29 01:51:12;;;;;;;39.08;9.40;;;19.70;30.60;;;;;;5057951;28;21041;-66
2021/11/29 01:53:39;;;;;;;42.45;9.45;;;19.60;30.50;;;;;;5059550;28;20156;-66
2021/11/29 01:56:06;;;;;;;41.22;9.70;;;19.50;30.50;;;;;;5068473;28;20065;-65
2021/11/29 01:58:35;;;;;;;38.83;8.77;;;19.50;30.70;;;;;;5058576;28;20096;-66
2021/11/29 02:01:10;;;;;;;49.80;10.20;;;19.40;30.90;;;;;;5059079;28;20126;-65
2021/11/29 02:03:38;;;;;;;43.95;10.32;;;19.40;31.60;;;;;;5059330;28;20100;-66
2021/11/29 02:06:05;;;;;;;67.45;12.82;;;19.30;31.50;;;;;;5059071;28;20451;-67
2021/11/29 02:08:32;;;;;;;66.47;16.30;;;19.40;31.80;;;;;;5058502;28;20582;-65
2021/11/29 02:10:58;;;;;;;58.00;16.13;;;19.30;31.20;;;;;;5050048;28;20085;-65
2021/11/29 02:13:25;;;;;;;77.50;20.27;;;19.30;31.40;;;;;;5068078;28;20561;-65
2021/11/29 02:15:51;;;;;;;83.40;20.70;;;19.30;31.50;;;;;;5059909;28;20221;-65
2021/11/29 02:18:28;;;;;;;62.55;19.02;;;19.20;31.30;;;;;;5043331;28;20073;-67
2021/11/29 02:21:10;;;;;;;66.72;19.92;;;19.20;31.40;;;;;;5057242;28;20188;-66
2021/11/29 02:23:43;;;;;;;67.35;20.63;;;19.10;31.50;;;;;;5054754;28;20094;-66
2021/11/29 02:26:10;;;;;;;71.10;20.20;;;19.10;31.40;;;;;;5059100;28;20504;-65
2021/11/29 02:28:40;;;;;;;72.78;21.90;;;19.00;31.60;;;;;;5054873;28;20073;-63
2021/11/29 02:31:10;;;;;;;73.50;21.30;;;19.00;31.70;;;;;;5068393;28;20073;-64
2021/11/29 02:33:37;;;;;;;74.60;21.80;;;18.90;31.80;;;;;;5056467;28;20077;-66
2021/11/29 02:36:04;;;;;;;98.07;24.27;;;18.80;31.80;;;;;;5053368;28;20157;-67
2021/11/29 02:38:31;;;;;;;75.28;22.70;;;18.80;31.90;;;;;;5053077;28;20081;-66
2021/11/29 02:40:58;;;;;;;76.32;24.33;;;18.80;32.00;;;;;;5080456;28;20104;-68
2021/11/29 02:43:25;;;;;;;86.35;24.40;;;18.80;32.20;;;;;;5081463;28;20093;-66
2021/11/29 02:45:51;;;;;;;87.80;25.23;;;18.70;32.50;;;;;;5069246;28;20115;-68
2021/11/29 02:48:18;;;;;;;66.97;23.23;;;18.70;33.00;;;;;;5084270;28;20159;-67
2021/11/29 02:50:44;;;;;;;98.25;26.92;;;18.60;33.30;;;;;;5052019;28;20088;-66
2021/11/29 02:53:14;;;;;;;96.45;25.10;;;18.50;33.70;;;;;;5069916;28;20085;-66
2021/11/29 02:55:40;;;;;;;92.03;25.55;;;18.40;34.60;;;;;;5068841;28;20111;-66
2021/11/29 02:58:07;;;;;;;100.47;26.55;;;18.40;33.90;;;;;;5070445;28;20134;-67
2021/11/29 03:00:34;;;;;;;74.13;25.20;;;18.40;34.10;;;;;;5052935;28;20073;-65
2021/11/29 03:03:03;;;;;;;82.40;26.88;;;18.40;34.40;;;;;;5072370;28;20124;-63
2021/11/29 03:05:30;;;;;;;85.78;25.50;;;18.30;33.10;;;;;;5073554;28;20091;-67
2021/11/29 03:07:56;;;;;;;75.50;25.83;;;18.30;34.10;;;;;;5055910;28;20151;-65
2021/11/29 03:10:22;;;;;;;;;;;18.20;34.50;;;;;;5074009;28;20431;-65
2021/11/29 03:12:48;;;;;;;91.18;28.02;;;18.10;34.00;;;;;;5072466;28;20369;-66
2021/11/29 03:15:14;;;;;;;;;;;18.10;34.20;;;;;;5058608;28;20116;-67
2021/11/29 03:17:42;;;;;;;75.93;28.05;;;18.10;34.50;;;;;;5057248;28;20450;-64
2021/11/29 03:20:13;;;;;;;75.70;27.77;;;18.00;35.10;;;;;;5073060;28;20112;-67
2021/11/29 03:22:40;;;;;;;82.07;26.90;;;17.90;35.00;;;;;;5078931;28;20495;-64
2021/11/29 03:25:10;;;;;;;87.93;27.83;;;17.90;35.00;;;;;;5083918;28;20516;-66
2021/11/29 03:27:38;;;;;;;74.47;28.17;;;17.90;35.10;;;;;;5055613;28;20164;-65
2021/11/29 03:30:05;;;;;;;78.25;29.17;;;17.80;35.30;;;;;;5053740;28;20112;-67
2021/11/29 03:32:34;;;;;;;71.22;29.70;;;17.70;35.20;;;;;;5055080;28;20077;-68
2021/11/29 03:35:00;;;;;;;86.15;29.98;;;17.70;35.70;;;;;;5056607;28;20084;-65
2021/11/29 03:37:26;;;;;;;;;;;17.70;35.60;;;;;;5055669;28;20077;-67
2021/11/29 03:39:52;;;;;;;92.15;30.48;;;17.60;36.10;;;;;;5071701;28;20318;-66
2021/11/29 03:42:18;;;;;;;;;;;17.70;36.60;;;;;;5060844;28;20516;-67
2021/11/29 03:44:45;;;;;;;110.32;32.58;;;17.60;36.50;;;;;;5089612;28;20010;-66
2021/11/29 03:47:11;;;;;;;;;;;17.70;36.10;;;;;;5090414;28;20597;-66
2021/11/29 03:49:37;;;;;;;111.70;35.90;;;17.60;36.00;;;;;;5080234;28;19973;-67
2021/11/29 03:52:04;;;;;;;94.30;33.22;;;17.60;36.10;;;;;;5055127;28;20628;-66
2021/11/29 03:54:31;;;;;;;117.65;34.78;;;17.60;36.20;;;;;;5068395;28;20087;-64
2021/11/29 03:56:57;;;;;;;112.65;34.40;;;17.50;36.40;;;;;;5067275;28;20077;-65
2021/11/29 03:59:23;;;;;;;109.60;34.65;;;17.50;36.80;;;;;;5072379;28;20122;-63
2021/11/29 04:01:49;;;;;;;;;;;17.50;37.20;;;;;;5054491;28;20158;-65
2021/11/29 04:04:16;;;;;;;126.07;35.55;;;17.50;38.00;;;;;;5069763;28;20091;-63
2021/11/29 04:06:43;;;;;;;117.45;36.22;;;17.50;38.40;;;;;;5058854;28;20077;-67
2021/11/29 04:09:09;;;;;;;;;;;17.50;38.00;;;;;;5072795;28;20158;-64
2021/11/29 04:11:35;;;;;;;111.80;37.35;;;17.40;38.00;;;;;;5054875;28;20620;-65
2021/11/29 04:14:02;;;;;;;;;;;17.30;38.30;;;;;;5059929;28;20584;-65
2021/11/29 04:16:28;;;;;;;115.45;35.30;;;17.30;38.00;;;;;;5070990;28;20052;-64
2021/11/29 04:18:54;;;;;;;;;;;17.20;37.70;;;;;;5054560;28;20066;-63
2021/11/29 04:21:21;;;;;;;116.82;34.88;;;17.30;38.50;;;;;;5070569;28;19983;-65
2021/11/29 04:23:48;;;;;;;114.60;33.72;;;17.20;38.30;;;;;;5062981;28;20117;-66
2021/11/29 04:26:17;;;;;;;107.35;33.35;;;17.20;38.10;;;;;;5072059;28;20073;-64
2021/11/29 04:28:45;;;;;;;106.68;34.90;;;17.10;38.70;;;;;;5055169;28;20081;-64
2021/11/29 04:31:12;;;;;;;120.75;34.08;;;17.10;38.50;;;;;;5053911;28;20093;-65
2021/11/29 04:33:38;;;;;;;120.18;35.65;;;17.20;38.70;;;;;;5072537;28;20509;-64
2021/11/29 04:36:05;;;;;;;106.40;32.90;;;17.20;38.60;;;;;;5054556;28;20093;-64
2021/11/29 04:38:31;;;;;;;109.35;34.28;;;17.10;38.80;;;;;;5055583;28;20084;-63
2021/11/29 04:40:57;;;;;;;;;;;17.20;38.90;;;;;;5055618;28;20146;-64
2021/11/29 04:43:24;;;;;;;110.95;34.22;;;17.10;39.60;;;;;;5071650;28;20054;-63
2021/11/29 04:45:50;;;;;;;;;;;17.10;39.60;;;;;;5055266;28;20159;-64
2021/11/29 04:48:16;;;;;;;103.85;34.30;;;17.00;39.30;;;;;;5070395;28;19964;-63
2021/11/29 04:50:43;;;;;;;114.63;34.78;;;17.00;39.60;;;;;;5036261;28;20447;-66
2021/11/29 04:53:09;;;;;;;;;;;16.90;39.20;;;;;;5059549;28;20122;-63
2021/11/29 04:55:35;;;;;;;112.72;34.25;;;16.90;39.60;;;;;;5067734;28;20358;-63
2021/11/29 04:58:01;;;;;;;;;;;16.90;40.10;;;;;;5053310;28;20069;-65
2021/11/29 05:00:28;;;;;;;103.30;33.45;;;16.90;40.40;;;;;;5070097;28;20002;-66
2021/11/29 05:02:54;;;;;;;;;;;16.90;39.90;;;;;;5055693;28;20195;-64
2021/11/29 05:05:20;;;;;;;102.50;31.13;;;16.80;39.70;;;;;;5035876;28;20079;-66
2021/11/29 05:07:47;;;;;;;90.88;34.78;;;16.80;39.20;;;;;;5071170;28;20143;-63
2021/11/29 05:10:13;;;;;;;;;;;16.70;39.20;;;;;;5054800;28;20069;-63
2021/11/29 05:12:39;;;;;;;107.70;35.03;;;16.70;39.50;;;;;;5072454;28;20010;-66
2021/11/29 05:15:06;;;;;;;;;;;16.70;40.10;;;;;;5056016;28;20099;-64
2021/11/29 05:17:32;;;;;;;109.65;34.30;;;16.70;40.20;;;;;;5055444;28;19957;-65
2021/11/29 05:19:58;;;;;;;;;;;16.60;39.60;;;;;;5055691;28;20531;-65
2021/11/29 05:22:25;;;;;;;106.40;35.53;;;16.60;39.90;;;;;;5071390;28;19972;-66
2021/11/29 05:24:51;;;;;;;;;;;16.60;40.30;;;;;;5089050;28;20084;-64
2021/11/29 05:27:17;;;;;;;114.22;34.03;;;16.60;40.40;;;;;;5069679;28;20415;-65
2021/11/29 05:29:44;;;;;;;118.70;34.17;;;16.60;41.30;;;;;;5036836;28;20177;-64
2021/11/29 05:32:10;;;;;;;;;;;16.60;40.80;;;;;;5072091;28;20100;-64
2021/11/29 05:34:36;;;;;;;121.43;35.03;;;16.50;40.90;;;;;;5036750;28;19999;-64
2021/11/29 05:37:02;;;;;;;;;;;16.40;40.80;;;;;;5054024;28;20420;-65
2021/11/29 05:39:29;;;;;;;103.43;33.80;;;16.40;40.90;;;;;;5071051;28;19971;-64
2021/11/29 05:41:55;;;;;;;;;;;16.40;40.90;;;;;;5052925;28;20088;-65
2021/11/29 05:44:21;;;;;;;120.45;34.42;;;16.40;41.80;;;;;;5069449;28;19965;-64
2021/11/29 05:46:47;;;;;;;;;;;16.40;41.90;;;;;;5054445;28;20147;-64
2021/11/29 05:49:14;;;;;;;107.75;34.53;;;16.40;41.80;;;;;;5070107;28;20060;-63
2021/11/29 05:51:40;;;;;;;;;;;16.40;42.10;;;;;;5052010;28;20112;-63
2021/11/29 05:54:06;;;;;;;124.82;35.35;;;16.40;42.10;;;;;;5056640;28;20417;-61
2021/11/29 05:56:32;;;;;;;;;;;16.30;42.70;;;;;;5053932;28;20093;-64
2021/11/29 05:58:59;;;;;;;162.73;39.03;;;16.30;42.20;;;;;;5063813;28;19972;-64
2021/11/29 06:01:25;;;;;;;;;;;16.20;42.70;;;;;;5057480;28;20081;-60
2021/11/29 06:03:52;;;;;;;180.07;40.55;;;16.20;42.60;;;;;;5070711;28;19985;-63
2021/11/29 06:06:18;;;;;;;123.45;36.83;;;16.10;42.70;;;;;;5056740;28;20099;-63
2021/11/29 06:08:44;;;;;;;;;;;16.50;43.30;;;;;;5053771;28;20081;-62
2021/11/29 06:11:11;;;;;;;125.63;36.28;;;16.00;42.50;;;;;;5068614;28;20064;-62
2021/11/29 06:13:37;;;;;;;126.15;36.03;;;16.00;42.30;;;;;;5053137;28;20077;-64
2021/11/29 06:16:04;;;;;;;126.68;34.33;;;16.00;42.00;;;;;;5069582;28;20101;-62
2021/11/29 06:18:30;;;;;;;118.35;34.53;;;15.90;41.40;;;;;;5036944;28;20169;-63
2021/11/29 06:20:57;;;;;;;118.35;34.95;;;15.90;41.00;;;;;;5034272;28;20081;-60
2021/11/29 06:23:23;;;;;;;;;;;15.90;41.40;;;;;;5059919;28;20108;-64
2021/11/29 06:25:49;;;;;;;116.28;33.67;;;15.90;41.30;;;;;;5071070;28;20307;-64
2021/11/29 06:28:15;;;;;;;127.38;33.97;;;15.90;41.30;;;;;;5051085;28;20100;-62
2021/11/29 06:30:42;;;;;;;122.32;36.08;;;15.90;41.50;;;;;;5052801;28;20131;-61
2021/11/29 06:33:08;;;;;;;;;;;15.90;40.80;;;;;;5055087;28;20473;-64
2021/11/29 06:35:34;;;;;;;113.57;35.95;;;15.90;40.40;;;;;;5053855;28;19958;-64
2021/11/29 06:38:03;;;;;;;;;;;15.80;40.50;;;;;;5036974;28;20083;-63
2021/11/29 06:40:31;;;;;;;125.30;36.35;;;15.80;40.80;;;;;;5059498;28;19968;-65
2021/11/29 06:42:57;;;;;;;133.60;37.10;;;15.80;41.00;;;;;;5061131;28;20089;-62
2021/11/29 06:45:24;;;;;;;;;;;15.70;41.20;;;;;;5045056;28;20075;-63
2021/11/29 06:47:50;;;;;;;163.15;41.33;;;15.70;41.10;;;;;;5059320;28;19961;-62
2021/11/29 06:50:19;;;;;;;147.07;39.72;;;15.70;41.70;;;;;;5072444;28;20096;-62
2021/11/29 06:52:45;;;;;;;139.38;40.85;;;15.70;42.00;;;;;;5062863;28;20105;-63
2021/11/29 06:55:14;;;;;;;;;;;15.70;41.80;;;;;;5043907;28;20501;-63
2021/11/29 06:57:42;;;;;;;158.35;43.47;;;15.70;41.70;;;;;;5062089;28;19980;-64
2021/11/29 07:00:11;;;;;;;145.32;43.03;;;15.70;42.30;;;;;;5038425;28;20130;-64
2021/11/29 07:02:40;;;;;;;132.55;42.13;;;15.70;42.30;;;;;;5060243;28;20176;-66
2021/11/29 07:05:08;;;;;;;146.80;43.38;;;15.60;42.10;;;;;;5061429;28;20148;-65
2021/11/29 07:07:35;;;;;;;152.15;43.42;;;15.60;42.20;;;;;;5072754;28;20122;-64
2021/11/29 07:10:02;;;;;;;132.05;41.72;;;15.60;41.30;;;;;;5045896;28;20069;-61
2021/11/29 07:12:28;;;;;;;143.98;44.78;;;15.60;41.40;;;;;;5059322;28;20073;-65
2021/11/29 07:14:54;;;;;;;;;;;15.60;40.90;;;;;;5057770;28;20439;-62
2021/11/29 07:17:21;;;;;;;147.75;45.50;;;15.50;40.90;;;;;;5060211;28;19960;-62
2021/11/29 07:19:52;;;;;;;138.88;44.78;;;15.40;40.90;;;;;;5058942;28;20080;-62
2021/11/29 07:22:20;;;;;;;139.73;43.92;;;15.40;40.90;;;;;;5058168;28;20189;-63
2021/11/29 07:24:50;;;;;;;144.80;44.13;;;15.40;40.80;;;;;;5061880;28;20595;-63
2021/11/29 07:27:17;;;;;;;134.60;44.90;;;15.40;40.80;;;;;;5043870;28;20655;-63
2021/11/29 07:29:44;;;;;;;147.27;45.88;;;15.30;40.90;;;;;;5052750;28;20214;-62
2021/11/29 07:32:10;;;;;;;141.13;44.88;;;15.30;40.80;;;;;;5059065;28;20089;-63
2021/11/29 07:34:37;;;;;;;;;;;15.20;40.50;;;;;;5043946;28;20411;-63
2021/11/29 07:37:04;;;;;;;140.63;45.45;;;15.20;40.30;;;;;;5058453;28;19957;-62
2021/11/29 07:39:30;;;;;;;152.68;45.55;;;15.30;40.60;;;;;;5057839;28;20084;-62
2021/11/29 07:41:58;;;;;;;142.32;44.90;;;15.20;40.50;;;;;;5062347;28;20077;-62
2021/11/29 07:44:25;;;;;;;131.20;44.58;;;15.20;40.40;;;;;;5057414;28;20183;-62
2021/11/29 07:46:51;;;;;;;162.77;45.75;;;15.20;40.60;;;;;;5071583;28;20077;-64
2021/11/29 07:49:18;;;;;;;158.68;45.03;;;15.10;40.40;;;;;;5037396;28;20077;-62
2021/11/29 07:51:44;;;;;;;165.75;45.63;;;15.10;40.40;;;;;;5037107;28;20147;-62
2021/11/29 07:54:11;;;;;;;140.38;42.97;;;15.10;40.90;;;;;;5044942;28;20112;-62
2021/11/29 07:56:37;;;;;;;150.18;42.83;;;15.10;40.60;;;;;;5071510;28;20085;-64
2021/11/29 07:59:03;;;;;;;132.63;42.38;;;15.10;40.60;;;;;;5071609;28;20558;-63
2021/11/29 08:01:30;;;;;;;136.80;41.00;;;15.10;40.80;;;;;;5059250;28;20081;-62
2021/11/29 08:03:56;;;;;;;147.45;43.05;;;15.00;41.90;;;;;;5041535;28;20100;-62
2021/11/29 08:06:23;;;;;;;147.40;42.90;;;15.00;40.90;;;;;;5057534;28;20073;-62
2021/11/29 08:08:49;;;;;;;;;;;15.00;40.70;;;;;;5042614;28;20127;-62
2021/11/29 08:11:15;;;;;;;135.18;40.83;;;15.00;40.50;;;;;;5069932;28;19988;-62
2021/11/29 08:13:42;;;;;;;;;;;14.90;40.30;;;;;;5058529;28;20131;-62
2021/11/29 08:16:09;;;;;;;126.13;36.13;;;14.80;39.70;;;;;;5070187;28;20435;-64
2021/11/29 08:18:35;;;;;;;125.28;37.42;;;14.70;39.30;;;;;;5058542;28;20176;-63
2021/11/29 08:21:01;;;;;;;103.03;34.50;;;14.60;40.40;;;;;;5056409;28;20095;-61
2021/11/29 08:23:28;;;;;;;;;;;14.70;40.60;;;;;;5063885;28;20093;-61
2021/11/29 08:25:54;;;;;;;111.25;34.35;;;14.70;40.20;;;;;;5058696;28;19971;-63
2021/11/29 08:28:20;;;;;;;;;;;14.60;40.20;;;;;;5058243;28;20080;-61
2021/11/29 08:30:47;;;;;;;115.50;33.42;;;14.60;40.60;;;;;;5069674;28;19957;-61
2021/11/29 08:33:14;;;;;;;95.22;32.22;;;14.70;41.20;;;;;;5057922;28;20115;-61
2021/11/29 08:35:42;;;;;;;107.65;29.88;;;14.70;41.00;;;;;;5059193;28;20134;-62
2021/11/29 08:38:08;;;;;;;98.45;30.48;;;14.70;41.90;;;;;;5058542;28;20081;-63
2021/11/29 08:40:36;;;;;;;112.03;30.13;;;14.70;41.30;;;;;;5039919;28;20547;-62
2021/11/29 08:43:11;;;;;;;97.35;28.13;;;14.60;41.30;;;;;;5038873;28;20102;-60
2021/11/29 08:45:39;;;;;;;81.53;25.48;;;14.60;41.30;;;;;;5070925;28;20111;-61
2021/11/29 08:48:08;;;;;;;80.45;25.25;;;14.60;41.10;;;;;;5057909;28;20084;-62
2021/11/29 08:50:36;;;;;;;100.38;23.88;;;14.60;41.30;;;;;;5035636;28;20104;-61
2021/11/29 08:53:07;;;;;;;83.57;22.25;;;14.50;40.20;;;;;;5058321;28;20163;-62
2021/11/29 08:55:35;;;;;;;85.03;24.33;;;14.40;39.70;;;;;;5039668;28;20447;-61
2021/11/29 08:58:06;;;;;;;82.88;23.23;;;14.40;39.50;;;;;;5041874;28;20652;-61
2021/11/29 09:00:34;;;;;;;88.50;22.10;;;14.30;39.10;;;;;;5052882;28;20205;-62
2021/11/29 09:03:06;;;;;;;92.82;22.88;;;14.30;38.70;;;;;;5052045;28;20974;-63
2021/11/29 09:05:33;;;;;;;92.55;23.50;;;14.30;39.20;;;;;;5060013;28;20156;-61
2021/11/29 09:08:00;;;;;;;104.30;23.98;;;14.40;39.30;;;;;;5059879;28;20081;-61
2021/11/29 09:10:26;;;;;;;;;;;14.30;39.10;;;;;;5058059;28;20066;-62
2021/11/29 09:12:52;;;;;;;94.15;21.85;;;14.30;39.30;;;;;;5069273;28;19960;-62
2021/11/29 09:15:19;;;;;;;;;;;14.30;39.00;;;;;;5053289;28;20088;-61
2021/11/29 09:17:46;;;;;;;84.05;22.42;;;14.30;37.90;;;;;;5060616;28;20382;-62
2021/11/29 09:20:15;;;;;;;108.80;22.70;;;14.30;37.50;;;;;;5040175;28;20096;-63
2021/11/29 09:22:42;;;;;;;90.22;22.23;;;14.20;36.40;;;;;;5058663;28;20120;-62
2021/11/29 09:25:11;;;;;;;90.97;22.13;;;14.20;36.40;;;;;;5058059;28;20073;-61
2021/11/29 09:27:38;;;;;;;91.93;20.98;;;14.20;35.40;;;;;;5039764;28;20164;-61
2021/11/29 09:30:07;;;;;;;110.85;24.80;;;14.10;34.90;;;;;;5055264;28;20076;-61
2021/11/29 09:32:38;;;;;;;89.15;24.17;;;14.10;34.30;;;;;;5041723;28;20106;-63
2021/11/29 09:35:10;;;;;;;97.38;21.20;;;14.10;34.30;;;;;;5054893;28;20118;-63
2021/11/29 09:37:38;;;;;;;106.10;24.08;;;14.10;34.60;;;;;;5069651;28;20126;-62
2021/11/29 09:40:08;;;;;;;112.95;24.17;;;14.20;35.60;;;;;;5056099;28;20208;-62
2021/11/29 09:42:37;;;;;;;119.25;25.73;;;14.20;35.40;;;;;;5052345;28;20115;-64
2021/11/29 09:45:06;;;;;;;107.78;24.58;;;14.20;36.40;;;;;;5058473;28;20080;-64
2021/11/29 09:47:33;;;;;;;99.00;23.05;;;14.10;36.30;;;;;;5057807;28;20112;-62
2021/11/29 09:50:00;;;;;;;86.13;23.38;;;14.10;36.30;;;;;;5069619;28;20152;-63
2021/11/29 09:52:26;;;;;;;92.20;22.90;;;14.00;35.70;;;;;;5041025;28;20158;-62
2021/11/29 09:54:53;;;;;;;93.43;22.05;;;14.00;35.10;;;;;;5038915;28;20087;-64
2021/11/29 09:57:20;;;;;;;100.20;22.70;;;14.00;34.90;;;;;;5055492;28;20077;-62
2021/11/29 09:59:48;;;;;;;85.05;21.83;;;14.00;35.30;;;;;;5055329;28;20163;-62
2021/11/29 10:02:15;;;;;;;104.32;23.17;;;14.00;36.00;;;;;;5054903;28;20077;-63
2021/11/29 10:04:47;;;;;;;88.88;22.02;;;13.90;35.20;;;;;;5062451;28;20084;-62
2021/11/29 10:07:32;;;;;;;94.03;21.70;;;13.90;35.40;;;;;;5041941;28;20143;-62
2021/11/29 10:10:24;;;;;;;65.03;17.08;;;13.90;34.90;;;;;;5059353;28;20110;-61
2021/11/29 10:27:05;;;;;;;53.03;11.88;;;13.90;30.50;;;;;;5073375;28;20476;-60
2021/11/29 10:29:32;;;;;;;51.10;13.15;;;13.90;30.90;;;;;;5060070;28;20077;-61
2021/11/29 10:31:58;;;;;;;;;;;13.80;31.80;;;;;;5039532;28;20109;-61
2021/11/29 10:34:34;;;;;;;46.92;14.85;;;13.80;31.50;;;;;;5063159;28;20405;-61
2021/11/29 10:37:10;;;;;;;53.05;15.35;;;13.80;32.30;;;;;;5064747;28;20114;-63
2021/11/29 10:39:40;;;;;;;59.38;17.48;;;13.90;33.00;;;;;;5061312;28;20095;-62
2021/11/29 10:42:12;;;;;;;51.95;16.08;;;13.90;33.70;;;;;;5062742;28;20091;-63
2021/11/29 10:44:41;;;;;;;67.75;19.95;;;13.90;34.00;;;;;;5061208;28;20127;-63
2021/11/29 10:47:18;;;;;;;68.95;17.92;;;13.80;34.20;;;;;;5043054;28;20085;-63
2021/11/29 10:49:49;;;;;;;64.38;19.48;;;13.80;34.20;;;;;;5059920;28;20089;-63
2021/11/29 10:52:25;;;;;;;69.38;19.02;;;13.80;34.60;;;;;;5057289;28;20598;-64
2021/11/29 10:54:53;;;;;;;65.72;19.05;;;13.80;34.50;;;;;;5059376;28;20080;-61
2021/11/29 10:57:21;;;;;;;61.88;18.27;;;13.80;34.70;;;;;;5058634;28;20524;-64
2021/11/29 10:59:50;;;;;;;58.22;18.58;;;13.80;35.00;;;;;;5058216;28;20547;-62
2021/11/29 11:02:19;;;;;;;59.42;19.73;;;13.80;35.30;;;;;;5058996;28;20531;-64
2021/11/29 11:04:49;;;;;;;62.85;18.80;;;13.80;35.30;;;;;;5059486;28;20196;-62
2021/11/29 11:07:22;;;;;;;57.38;18.30;;;13.80;35.60;;;;;;5059884;28;20118;-64
2021/11/29 11:09:54;;;;;;;59.33;18.67;;;13.80;36.10;;;;;;5059279;28;20102;-64
2021/11/29 11:12:24;;;;;;;57.83;17.95;;;13.70;36.00;;;;;;5061735;28;20088;-62
2021/11/29 11:14:54;;;;;;;56.78;17.92;;;13.70;36.00;;;;;;5044348;28;20089;-62
2021/11/29 11:17:32;;;;;;;58.55;16.85;;;13.70;35.80;;;;;;5059599;28;20138;-62
2021/11/29 11:20:09;;;;;;;52.05;17.17;;;13.70;35.50;;;;;;5072495;28;20560;-62
2021/11/29 11:22:46;;;;;;;54.38;17.13;;;13.70;35.80;;;;;;5038160;28;20096;-62
2021/11/29 11:25:22;;;;;;;53.08;15.32;;;13.70;35.50;;;;;;5070973;28;20079;-64
2021/11/29 11:28:00;;;;;;;48.85;15.15;;;13.70;35.40;;;;;;5043932;28;20539;-62
2021/11/29 11:30:32;;;;;;;47.40;14.55;;;13.70;35.20;;;;;;5061115;28;20162;-65
2021/11/29 11:33:02;;;;;;;49.63;15.25;;;13.70;36.00;;;;;;5072220;28;20073;-63
2021/11/29 11:35:35;;;;;;;61.20;15.60;;;13.70;36.30;;;;;;5056843;28;20101;-64
2021/11/29 11:38:11;;;;;;;55.25;16.23;;;13.70;36.50;;;;;;5060519;28;20111;-62
2021/11/29 11:40:40;;;;;;;61.42;17.00;;;13.70;36.80;;;;;;5058700;28;20069;-62
2021/11/29 11:43:10;;;;;;;43.63;16.17;;;13.60;36.80;;;;;;5040028;28;20097;-63
2021/11/29 11:45:40;;;;;;;52.88;15.40;;;13.60;36.30;;;;;;5075028;28;20083;-62
2021/11/29 11:48:09;;;;;;;60.33;14.32;;;13.60;36.60;;;;;;5069569;28;20068;-64
2021/11/29 11:50:39;;;;;;;57.40;16.00;;;13.60;37.00;;;;;;5043097;28;20117;-62
2021/11/29 11:53:07;;;;;;;54.55;15.63;;;13.60;36.90;;;;;;5062208;28;20124;-62
2021/11/29 11:55:41;;;;;;;47.70;14.98;;;13.60;37.40;;;;;;5042831;28;20082;-64
2021/11/29 11:58:14;;;;;;;48.17;15.35;;;13.50;37.60;;;;;;5062288;28;20176;-63
2021/11/29 12:00:41;;;;;;;43.75;15.25;;;13.50;38.10;;;;;;5042598;28;20077;-62
2021/11/29 12:03:17;;;;;;;55.97;16.80;;;13.50;37.70;;;;;;5040184;28;20155;-62
2021/11/29 12:05:44;;;;;;;43.15;15.13;;;13.40;38.20;;;;;;5059394;28;20838;-64
2021/11/29 12:08:32;;;;;;;45.92;16.25;;;13.40;38.10;;;;;;5062034;28;20097;-62
2021/11/29 12:10:59;;;;;;;46.50;15.65;;;13.40;38.00;;;;;;5040826;28;20088;-65
2021/11/29 12:13:26;;;;;;;45.40;15.07;;;13.40;38.30;;;;;;5057908;28;20441;-63
2021/11/29 12:15:57;;;;;;;50.13;14.80;;;13.50;38.80;;;;;;5042250;28;20073;-63
2021/11/29 12:18:42;;;;;;;47.17;15.93;;;13.40;39.00;;;;;;5070876;28;20435;-62
2021/11/29 12:21:16;;;;;;;61.78;15.93;;;13.30;38.90;;;;;;5069955;28;20085;-64
2021/11/29 12:24:08;;;;;;;48.95;16.65;;;13.30;39.50;;;;;;5064401;28;20449;-63
2021/11/29 12:26:44;;;;;;;55.28;18.38;;;13.20;39.60;;;;;;5057767;28;20467;-64
2021/11/29 12:29:23;;;;;;;62.72;17.52;;;13.20;39.20;;;;;;5070160;28;20458;-63
2021/11/29 12:32:02;;;;;;;48.60;16.27;;;13.10;39.00;;;;;;5057934;28;20074;-63
2021/11/29 12:34:48;;;;;;;56.10;17.13;;;13.00;39.20;;;;;;5058202;28;20152;-62
2021/11/29 12:37:24;;;;;;;48.33;16.35;;;13.00;39.50;;;;;;5057100;28;20074;-64
2021/11/29 12:39:55;;;;;;;44.88;15.65;;;12.90;40.30;;;;;;5070333;28;20523;-62
2021/11/29 12:42:26;;;;;;;54.20;15.75;;;13.00;40.50;;;;;;5060930;28;20088;-63
2021/11/29 12:45:07;;;;;;;53.53;16.42;;;13.10;40.60;;;;;;5058016;28;20160;-62
2021/11/29 12:47:44;;;;;;;48.63;16.05;;;13.00;41.00;;;;;;5059235;28;20074;-62
2021/11/29 12:50:37;;;;;;;44.22;15.00;;;13.10;41.70;;;;;;5060066;28;20558;-63
2021/11/29 12:53:22;;;;;;;47.90;14.38;;;13.10;41.30;;;;;;5061220;28;20109;-62
2021/11/29 12:55:54;;;;;;;45.42;14.52;;;13.10;41.70;;;;;;5057930;28;20077;-63
2021/11/29 12:58:26;;;;;;;43.60;14.40;;;13.10;41.30;;;;;;5052717;28;20088;-63